Tuxedo, New York
Current Conditions -  °F | °C
As of 3:53 PM on Tuesday 27 Jan 2015 (Local Time) from KFWN Reporting Station
Clear Clear  
Wind Chill: 18°   Ceiling: Unl
Heat Index: 24°   Visibility: 10mi
Dew Point: 14°   Wind: 5mph
Humidity: 65%   Direction: NA
Pressure: 29.68"   Gusts: 17mph
Location:  41.1969°N, 74.224°W
Report Text: KFWN 272053Z AUTO VRB04G15KT 10SM CLR M04/M10 A2968 RMK AO2 SLP057 60000 T10441100 55003
Loading
Personal Weather Stations






























Interactive Weather Map New forecast layout! Learn more

10-Day Weather Forecast

Advertisements
Track Severe Weather on mobile